createdAt,value
2022-08-20T00:02:39.292Z,89.77
2022-08-20T00:05:07.979Z,89.76
2022-08-20T00:07:34.515Z,89.85
2022-08-20T00:10:11.588Z,89.84
2022-08-20T00:12:44.778Z,90.10
2022-08-20T00:15:13.084Z,90.10
2022-08-20T00:17:42.028Z,90.10
2022-08-20T00:20:12.683Z,89.79
2022-08-20T00:22:39.330Z,90.02
2022-08-20T00:25:07.872Z,89.86
2022-08-20T00:27:42.225Z,89.65
2022-08-20T00:30:11.456Z,89.96
2022-08-20T00:32:55.372Z,89.79
2022-08-20T00:35:24.676Z,90.01
2022-08-20T00:37:55.380Z,90.01
2022-08-20T00:40:29.701Z,90.15
2022-08-20T00:42:59.304Z,90.42
2022-08-20T00:45:28.724Z,89.97
2022-08-20T00:48:00.395Z,89.87
2022-08-20T00:50:37.586Z,90.00
2022-08-20T00:53:07.524Z,90.16
2022-08-20T00:55:35.781Z,90.06
2022-08-20T00:58:09.529Z,89.95
2022-08-20T01:01:06.600Z,90.06
2022-08-20T01:03:42.565Z,90.16
2022-08-20T01:06:13.019Z,89.96
2022-08-20T01:08:41.824Z,90.20
2022-08-20T01:11:22.093Z,90.38
2022-08-20T01:13:48.886Z,90.61
2022-08-20T01:16:28.147Z,90.50
2022-08-20T01:18:57.579Z,90.42
2022-08-20T01:21:32.248Z,90.27
2022-08-20T01:24:15.187Z,90.12
2022-08-20T01:26:46.141Z,90.16
2022-08-20T01:29:37.205Z,90.15
2022-08-20T01:32:04.840Z,90.10
2022-08-20T01:34:31.372Z,90.22
2022-08-20T01:36:58.449Z,90.21
2022-08-20T01:39:33.990Z,90.36
2022-08-20T01:42:08.934Z,90.44
2022-08-20T01:44:40.475Z,90.29
2022-08-20T01:47:27.449Z,90.29
2022-08-20T01:49:59.885Z,90.47
2022-08-20T01:52:41.367Z,90.50
2022-08-20T01:55:09.169Z,90.43
2022-08-20T01:57:37.344Z,90.29
2022-08-20T02:00:14.628Z,90.12
2022-08-20T02:02:50.419Z,90.14
2022-08-20T02:05:18.143Z,89.96
2022-08-20T02:07:44.647Z,89.98
2022-08-20T02:10:13.524Z,89.65
2022-08-20T02:12:41.297Z,89.66
2022-08-20T02:15:10.892Z,89.74
2022-08-20T02:17:37.971Z,89.53
2022-08-20T02:20:12.349Z,89.62
2022-08-20T02:22:50.066Z,89.71
2022-08-20T02:25:21.083Z,89.61
2022-08-20T02:27:51.880Z,89.92
2022-08-20T02:30:27.729Z,89.92
2022-08-20T02:32:56.401Z,89.92
2022-08-20T02:35:24.340Z,89.91
2022-08-20T02:37:51.897Z,90.19
2022-08-20T02:40:27.325Z,89.93
2022-08-20T02:42:58.079Z,90.23
2022-08-20T02:45:30.680Z,90.11
2022-08-20T02:47:58.946Z,90.11
2022-08-20T02:50:27.772Z,89.67
2022-08-20T02:52:54.981Z,89.85
2022-08-20T02:55:25.134Z,90.01
2022-08-20T02:57:59.144Z,89.62
2022-08-20T03:00:27.193Z,89.50
2022-08-20T03:02:53.760Z,89.35
2022-08-20T03:05:20.268Z,89.35
2022-08-20T03:07:49.413Z,89.52
2022-08-20T03:10:16.902Z,89.44
2022-08-20T03:12:43.288Z,89.40
2022-08-20T03:15:17.939Z,89.44
2022-08-20T03:17:45.219Z,89.36
2022-08-20T03:20:12.320Z,89.26
2022-08-20T03:22:39.007Z,89.54
2022-08-20T03:25:07.056Z,89.72
2022-08-20T03:27:36.386Z,89.80
2022-08-20T03:30:05.695Z,89.79
2022-08-20T03:32:32.229Z,89.89
2022-08-20T03:34:58.653Z,89.98
2022-08-20T03:37:25.332Z,90.03
2022-08-20T03:39:52.094Z,89.96
2022-08-20T03:42:18.559Z,90.03
2022-08-20T03:44:44.937Z,89.75
2022-08-20T03:47:11.576Z,89.52
2022-08-20T03:49:37.974Z,89.76
2022-08-20T03:52:06.600Z,89.46
2022-08-20T03:54:33.003Z,89.40
2022-08-20T03:57:01.156Z,89.41
2022-08-20T03:59:27.550Z,89.39
2022-08-20T04:01:54.805Z,89.38
2022-08-20T04:04:22.071Z,89.49
2022-08-20T04:06:48.573Z,88.86
2022-08-20T04:09:15.167Z,88.67
2022-08-20T04:11:45.725Z,88.60
2022-08-20T04:14:17.346Z,89.06
2022-08-20T04:16:48.834Z,88.37
2022-08-20T04:19:15.495Z,88.44
2022-08-20T04:21:41.868Z,88.27
2022-08-20T04:24:08.277Z,88.24
2022-08-20T04:26:49.721Z,88.43
2022-08-20T04:29:16.104Z,88.47
2022-08-20T04:31:42.488Z,88.42
2022-08-20T04:34:08.916Z,88.55
2022-08-20T04:36:35.532Z,88.72
2022-08-20T04:39:01.991Z,88.92
2022-08-20T04:41:28.407Z,88.69
2022-08-20T04:43:56.652Z,88.43
2022-08-20T04:46:25.978Z,88.79
2022-08-20T04:48:53.472Z,88.95
2022-08-20T04:51:23.111Z,89.04
2022-08-20T04:53:51.957Z,88.58
2022-08-20T04:56:23.351Z,89.22
2022-08-20T04:58:51.239Z,88.87
2022-08-20T05:01:17.772Z,89.14
2022-08-20T05:03:45.948Z,89.15
2022-08-20T05:06:13.619Z,89.34
2022-08-20T05:08:44.961Z,89.06
2022-08-20T05:11:33.033Z,89.30
2022-08-20T05:14:03.627Z,89.15
2022-08-20T05:16:37.906Z,89.44
2022-08-20T05:19:09.619Z,89.43
2022-08-20T05:21:36.733Z,89.39
2022-08-20T05:24:03.403Z,89.28
2022-08-20T05:26:29.787Z,88.82
2022-08-20T05:28:58.450Z,89.10
2022-08-20T05:31:32.560Z,88.80
2022-08-20T05:34:09.707Z,88.52
2022-08-20T05:36:41.198Z,88.79
2022-08-20T05:39:08.992Z,88.42
2022-08-20T05:41:36.342Z,88.42
2022-08-20T05:44:02.980Z,88.30
2022-08-20T05:46:31.466Z,88.50
2022-08-20T05:48:59.660Z,88.53
2022-08-20T05:51:27.348Z,88.56
2022-08-20T05:53:53.745Z,88.62
2022-08-20T05:56:20.157Z,88.36
2022-08-20T05:58:53.103Z,88.63
2022-08-20T06:01:19.577Z,88.53
2022-08-20T06:04:04.884Z,88.42
2022-08-20T06:06:44.538Z,88.57
2022-08-20T06:09:13.650Z,88.57
2022-08-20T06:11:40.092Z,88.51
2022-08-20T06:14:06.525Z,88.84
2022-08-20T06:16:33.291Z,88.78
2022-08-20T06:18:59.844Z,88.56
2022-08-20T06:21:29.523Z,88.72
2022-08-20T06:23:58.712Z,88.55
2022-08-20T06:26:30.543Z,88.30
2022-08-20T06:28:59.100Z,88.64
2022-08-20T06:31:25.964Z,88.54
2022-08-20T06:33:52.353Z,88.67
2022-08-20T06:36:19.325Z,88.46
2022-08-20T06:38:46.595Z,88.73
2022-08-20T06:41:13.982Z,88.57
2022-08-20T06:43:40.395Z,88.78
2022-08-20T06:46:07.012Z,88.69
2022-08-20T06:48:34.266Z,88.81
2022-08-20T06:51:01.429Z,88.57
2022-08-20T06:53:28.878Z,88.22
2022-08-20T06:55:58.745Z,88.48
2022-08-20T06:58:36.673Z,88.35
2022-08-20T07:01:09.245Z,88.49
2022-08-20T07:03:54.562Z,88.12
2022-08-20T07:06:22.020Z,88.15
2022-08-20T07:08:48.434Z,88.26
2022-08-20T07:11:14.922Z,88.14
2022-08-20T07:13:41.957Z,88.08
2022-08-20T07:16:09.479Z,87.96
2022-08-20T07:18:36.417Z,87.86
2022-08-20T07:21:03.404Z,87.70
2022-08-20T07:23:31.362Z,87.84
2022-08-20T07:25:57.816Z,87.33
2022-08-20T07:28:26.225Z,86.44
2022-08-20T07:31:13.397Z,86.90
2022-08-20T07:33:44.366Z,86.64
2022-08-20T07:36:12.227Z,86.84
2022-08-20T07:38:38.766Z,86.75
2022-08-20T07:41:16.804Z,86.19
2022-08-20T07:43:45.673Z,85.55
2022-08-20T07:46:14.662Z,85.53
2022-08-20T07:48:50.380Z,85.91
2022-08-20T07:51:19.965Z,85.35
2022-08-20T07:53:47.961Z,85.58
2022-08-20T07:56:19.223Z,85.65
2022-08-20T07:58:50.100Z,85.52
2022-08-20T08:01:22.701Z,85.79
2022-08-20T08:04:00.693Z,85.34
2022-08-20T08:06:31.255Z,83.84
2022-08-20T08:09:17.197Z,84.60
2022-08-20T08:11:57.535Z,85.21
2022-08-20T08:14:29.418Z,83.10
2022-08-20T08:17:04.675Z,84.23
2022-08-20T08:19:38.695Z,83.08
2022-08-20T08:22:08.021Z,83.19
2022-08-20T08:24:35.563Z,84.13
2022-08-20T08:27:02.140Z,84.58
2022-08-20T08:29:29.420Z,84.86
2022-08-20T08:32:10.375Z,84.11
2022-08-20T08:35:04.450Z,82.93
2022-08-20T08:37:39.070Z,83.79
2022-08-20T08:40:25.124Z,84.02
2022-08-20T08:43:01.011Z,80.81
2022-08-20T08:45:32.413Z,81.60
2022-08-20T08:47:59.247Z,82.71
2022-08-20T08:50:53.356Z,82.47
2022-08-20T08:53:40.549Z,83.13
2022-08-20T08:56:07.575Z,82.39
2022-08-20T08:58:42.042Z,80.14
2022-08-20T09:01:53.107Z,82.02
2022-08-20T09:04:10.806Z,81.62
2022-08-20T09:06:40.454Z,81.61
2022-08-20T09:09:17.495Z,80.28
2022-08-20T09:11:50.554Z,79.87
2022-08-20T09:14:36.817Z,79.90
2022-08-20T09:17:04.161Z,79.35
2022-08-20T09:19:31.108Z,76.03
2022-08-20T09:21:57.750Z,75.99
2022-08-20T09:24:30.092Z,76.77
2022-08-20T09:27:00.666Z,77.53
2022-08-20T09:29:29.488Z,78.41
2022-08-20T09:32:07.829Z,77.01
2022-08-20T09:34:41.469Z,74.82
2022-08-20T09:37:09.125Z,76.62
2022-08-20T09:39:50.321Z,74.50
2022-08-20T09:42:29.712Z,74.50
2022-08-20T09:44:57.049Z,71.74
2022-08-20T09:47:23.974Z,73.82
2022-08-20T09:49:58.594Z,70.87
2022-08-20T09:52:30.912Z,73.75
2022-08-20T09:55:02.270Z,71.15
2022-08-20T09:57:31.066Z,72.52
2022-08-20T10:00:19.942Z,71.99
2022-08-20T10:02:52.718Z,66.49
2022-08-20T10:05:19.424Z,68.84
2022-08-20T10:07:56.356Z,70.44
2022-08-20T10:10:23.104Z,67.77
2022-08-20T10:12:55.171Z,66.14
2022-08-20T10:15:37.201Z,65.66
2022-08-20T10:18:05.866Z,64.61
2022-08-20T10:20:40.490Z,66.99
2022-08-20T10:23:07.666Z,66.04
2022-08-20T10:25:59.885Z,65.85
2022-08-20T10:28:26.473Z,63.68
2022-08-20T10:31:16.878Z,65.83
2022-08-20T10:33:43.361Z,61.14
2022-08-20T10:36:16.641Z,63.34
2022-08-20T10:38:46.450Z,63.75
2022-08-20T10:41:16.989Z,65.15
2022-08-20T10:43:43.401Z,61.28
2022-08-20T10:46:11.904Z,62.62
2022-08-20T10:48:45.011Z,59.32
2022-08-20T10:51:19.554Z,61.35
2022-08-20T10:53:57.317Z,60.58
2022-08-20T10:56:38.366Z,60.43
2022-08-20T10:59:08.541Z,59.14
2022-08-20T11:01:42.238Z,59.87
2022-08-20T11:04:08.762Z,62.08
2022-08-20T11:06:35.543Z,56.79
2022-08-20T11:09:02.026Z,61.29
2022-08-20T11:11:46.076Z,60.13
2022-08-20T11:14:31.868Z,60.18
2022-08-20T11:17:19.877Z,56.67
2022-08-20T11:19:57.514Z,58.26
2022-08-20T11:22:24.344Z,56.48
2022-08-20T11:25:49.943Z,57.15
2022-08-20T11:29:10.023Z,63.28
2022-08-20T11:32:28.004Z,64.39
2022-08-20T11:34:54.450Z,58.03
2022-08-20T11:37:24.147Z,62.83
2022-08-20T11:40:02.082Z,63.00
2022-08-20T11:42:28.702Z,58.95
2022-08-20T11:44:55.198Z,61.53
2022-08-20T11:47:37.314Z,58.64
2022-08-20T11:50:10.259Z,55.91
2022-08-20T11:52:37.158Z,56.33
2022-08-20T11:55:11.098Z,55.33
2022-08-20T11:57:59.909Z,55.87
2022-08-20T12:00:32.719Z,57.07
2022-08-20T12:03:27.301Z,58.87
2022-08-20T12:05:53.854Z,61.45
2022-08-20T12:08:26.931Z,61.51
2022-08-20T12:10:55.584Z,61.44
2022-08-20T12:13:31.001Z,58.69
2022-08-20T12:16:18.666Z,60.79
2022-08-20T12:18:46.249Z,56.52
2022-08-20T12:21:29.652Z,57.27
2022-08-20T12:24:11.712Z,60.95
2022-08-20T12:26:38.356Z,62.40
2022-08-20T12:29:04.788Z,61.41
2022-08-20T12:31:31.300Z,60.00
2022-08-20T12:34:11.139Z,59.66
2022-08-20T12:36:37.630Z,59.04
2022-08-20T12:39:04.086Z,61.94
2022-08-20T12:42:37.850Z,60.21
2022-08-20T12:45:06.627Z,59.55
2022-08-20T12:47:35.970Z,58.83
2022-08-20T12:50:16.196Z,55.73
2022-08-20T12:52:43.033Z,55.80
2022-08-20T12:55:12.019Z,55.89
2022-08-20T12:57:43.364Z,57.37
2022-08-20T13:00:30.125Z,55.38
2022-08-20T13:02:59.440Z,55.95
2022-08-20T13:05:26.927Z,57.59
2022-08-20T13:08:00.837Z,57.35
2022-08-20T13:10:35.339Z,59.45
2022-08-20T13:13:06.779Z,57.57
2022-08-20T13:15:33.328Z,60.23
2022-08-20T13:18:02.478Z,59.39
2022-08-20T13:20:34.035Z,58.30
2022-08-20T13:23:00.885Z,58.52
2022-08-20T13:25:28.419Z,60.57
2022-08-20T13:27:59.247Z,59.81
2022-08-20T13:30:26.408Z,59.40
2022-08-20T13:32:55.203Z,61.17
2022-08-20T13:35:22.372Z,61.04
2022-08-20T13:37:49.914Z,58.28
2022-08-20T13:40:23.789Z,57.96
2022-08-20T13:43:11.872Z,60.94
2022-08-20T13:45:42.642Z,63.74
2022-08-20T13:48:14.488Z,62.24
2022-08-20T13:50:41.957Z,62.77
2022-08-20T13:53:18.528Z,63.09
2022-08-20T13:55:46.561Z,61.21
2022-08-20T13:58:19.337Z,61.10
2022-08-20T14:00:46.814Z,61.17
2022-08-20T14:03:25.611Z,61.35
2022-08-20T14:05:57.354Z,61.83
2022-08-20T14:08:54.960Z,60.80
2022-08-20T14:11:22.660Z,60.54
2022-08-20T14:13:49.133Z,57.96
2022-08-20T14:16:27.245Z,58.25
2022-08-20T14:18:56.344Z,60.32
2022-08-20T14:21:31.288Z,57.27
2022-08-20T14:23:58.272Z,58.79
2022-08-20T14:26:32.811Z,56.29
2022-08-20T14:29:19.636Z,58.85
2022-08-20T14:31:47.148Z,54.46
2022-08-20T14:34:15.596Z,56.19
2022-08-20T14:37:13.494Z,56.46
2022-08-20T14:39:40.751Z,56.74
2022-08-20T14:42:07.436Z,57.55
2022-08-20T14:44:34.119Z,57.12
2022-08-20T14:47:43.697Z,60.66
2022-08-20T14:50:16.351Z,60.65
2022-08-20T14:52:43.505Z,61.01
2022-08-20T14:55:20.033Z,62.67
2022-08-20T14:57:47.206Z,60.10
2022-08-20T15:00:18.153Z,61.40
2022-08-20T15:02:49.912Z,62.67
2022-08-20T15:05:24.435Z,59.74
2022-08-20T15:07:51.895Z,61.15
2022-08-20T15:10:25.117Z,60.85
2022-08-20T15:13:24.995Z,60.31
2022-08-20T15:15:51.507Z,60.47
2022-08-20T15:18:25.072Z,60.53
2022-08-20T15:21:11.749Z,61.17
2022-08-20T15:23:38.173Z,60.53
2022-08-20T15:26:06.824Z,60.93
2022-08-20T15:28:33.256Z,60.05
2022-08-20T15:30:59.643Z,61.14
2022-08-20T15:33:42.349Z,60.83
2022-08-20T15:36:10.843Z,60.02
2022-08-20T15:38:43.428Z,61.78
2022-08-20T15:41:13.932Z,60.92
2022-08-20T15:43:41.624Z,60.93
2022-08-20T15:46:08.067Z,61.95
2022-08-20T15:48:44.893Z,61.33
2022-08-20T15:51:56.905Z,61.62
2022-08-20T15:54:35.743Z,61.71
2022-08-20T15:57:27.027Z,62.64
2022-08-20T16:00:15.030Z,63.43
2022-08-20T16:03:20.173Z,62.84
2022-08-20T16:06:42.789Z,63.83
2022-08-20T16:09:09.137Z,65.96
2022-08-20T16:11:52.160Z,66.38
2022-08-20T16:14:59.421Z,65.53
2022-08-20T16:18:09.395Z,64.88
2022-08-20T16:20:41.040Z,64.12
2022-08-20T16:23:08.622Z,65.12
2022-08-20T16:25:53.682Z,66.17
2022-08-20T16:28:28.120Z,67.26
2022-08-20T16:31:08.574Z,66.87
2022-08-20T16:33:58.420Z,65.78
2022-08-20T16:36:46.387Z,66.92
2022-08-20T16:39:49.742Z,66.98
2022-08-20T16:42:45.619Z,66.23
2022-08-20T16:45:20.022Z,68.01
2022-08-20T16:47:59.713Z,68.36
2022-08-20T16:50:35.569Z,67.12
2022-08-20T16:53:19.657Z,68.66
2022-08-20T16:55:46.617Z,69.07
2022-08-20T16:58:18.700Z,67.67
2022-08-20T17:00:47.151Z,66.72
2022-08-20T17:03:33.355Z,66.28
2022-08-20T17:06:26.788Z,66.01
2022-08-20T17:09:14.587Z,67.13
2022-08-20T17:11:47.415Z,65.65
2022-08-20T17:14:19.277Z,65.85
2022-08-20T17:16:49.035Z,66.44
2022-08-20T17:19:18.596Z,66.53
2022-08-20T17:21:50.336Z,65.75
2022-08-20T17:24:26.662Z,66.92
2022-08-20T17:27:33.276Z,66.54
2022-08-20T17:30:06.483Z,67.55
2022-08-20T17:33:02.047Z,67.19
2022-08-20T17:35:38.063Z,67.67
2022-08-20T17:38:32.383Z,68.22
2022-08-20T17:41:08.266Z,67.75
2022-08-20T17:43:35.114Z,69.45
2022-08-20T17:46:27.862Z,67.82
2022-08-20T17:48:56.642Z,67.54
2022-08-20T17:51:33.525Z,67.15
2022-08-20T17:54:13.120Z,68.49
2022-08-20T17:56:42.622Z,69.25
2022-08-20T17:59:21.177Z,68.45
2022-08-20T18:02:16.251Z,68.80
2022-08-20T18:04:50.573Z,68.76
2022-08-20T18:07:25.456Z,69.10
2022-08-20T18:10:18.952Z,69.78
2022-08-20T18:12:54.602Z,70.04
2022-08-20T18:15:29.396Z,69.34
2022-08-20T18:18:56.886Z,69.75
2022-08-20T18:22:09.186Z,69.75
2022-08-20T18:25:27.059Z,70.13
2022-08-20T18:28:22.140Z,70.60
2022-08-20T18:31:10.245Z,70.54
2022-08-20T18:33:42.056Z,70.39
2022-08-20T18:36:31.873Z,70.80
2022-08-20T18:39:24.481Z,70.55
2022-08-20T18:42:22.683Z,70.93
2022-08-20T18:44:52.235Z,70.33
2022-08-20T18:47:26.091Z,71.45
2022-08-20T18:50:16.671Z,70.33
2022-08-20T18:53:15.050Z,70.61
2022-08-20T18:55:44.758Z,70.63
2022-08-20T18:58:32.678Z,70.89
2022-08-20T19:01:13.630Z,71.28
2022-08-20T19:03:56.076Z,71.46
2022-08-20T19:06:41.083Z,71.75
2022-08-20T19:10:01.984Z,71.62
2022-08-20T19:16:39.121Z,72.23
2022-08-20T19:19:15.567Z,72.09
2022-08-20T19:21:55.711Z,72.65
2022-08-20T19:24:56.720Z,72.93
2022-08-20T19:27:28.777Z,73.69
2022-08-20T19:30:13.268Z,73.57
2022-08-20T19:32:51.756Z,74.17
2022-08-20T19:35:18.602Z,74.50
2022-08-20T19:38:01.272Z,74.66
2022-08-20T19:40:35.921Z,75.37
2022-08-20T19:43:12.017Z,75.46
2022-08-20T19:45:54.273Z,75.26
2022-08-20T19:49:07.704Z,75.87
2022-08-20T19:51:53.927Z,76.39
2022-08-20T19:54:23.402Z,76.93
2022-08-20T19:56:52.284Z,77.07
2022-08-20T19:59:32.422Z,77.00
2022-08-20T20:02:02.867Z,77.37
2022-08-20T20:04:37.563Z,77.89
2022-08-20T20:07:15.132Z,78.04
2022-08-20T20:09:52.975Z,78.00
2022-08-20T20:12:22.675Z,78.49
2022-08-20T20:14:54.082Z,78.42
2022-08-20T20:17:25.952Z,78.41
2022-08-20T20:20:18.197Z,78.11
2022-08-20T20:23:18.127Z,78.12
2022-08-20T20:25:49.637Z,78.60
2022-08-20T20:28:31.748Z,78.23
2022-08-20T20:31:09.019Z,77.71
2022-08-20T20:33:43.825Z,77.59
2022-08-20T20:36:18.247Z,77.47
2022-08-20T20:39:08.468Z,77.71
2022-08-20T20:41:53.009Z,78.30
2022-08-20T20:44:47.629Z,78.07
2022-08-20T20:47:26.624Z,78.20
2022-08-20T20:50:07.188Z,78.46
2022-08-20T20:52:54.599Z,79.01
2022-08-20T20:56:00.265Z,78.58
2022-08-20T20:58:28.830Z,78.68
2022-08-20T21:00:55.481Z,78.95
2022-08-20T21:03:38.887Z,78.74
2022-08-20T21:06:13.776Z,78.83
2022-08-20T21:08:41.140Z,79.05
2022-08-20T21:11:07.567Z,79.28
2022-08-20T21:13:39.429Z,79.18
2022-08-20T21:16:11.228Z,79.52
2022-08-20T21:18:37.951Z,79.98
2022-08-20T21:21:15.730Z,80.00
2022-08-20T21:23:42.163Z,79.74
2022-08-20T21:27:12.527Z,79.96
2022-08-20T21:33:58.831Z,79.99
2022-08-20T21:36:38.721Z,80.19
2022-08-20T21:39:22.617Z,80.07
2022-08-20T21:41:49.044Z,80.32
2022-08-20T21:44:24.860Z,80.38
2022-08-20T21:46:55.984Z,80.49
2022-08-20T21:49:23.620Z,80.40
2022-08-20T21:51:51.368Z,80.85
2022-08-20T21:54:19.728Z,81.01
2022-08-20T21:56:50.672Z,80.86
2022-08-20T21:59:19.891Z,81.15
2022-08-20T22:01:47.754Z,80.93
2022-08-20T22:04:31.245Z,80.82
2022-08-20T22:07:06.987Z,81.05
2022-08-20T22:09:35.017Z,81.45
2022-08-20T22:12:14.573Z,81.24
2022-08-20T22:15:01.347Z,81.44
2022-08-20T22:17:27.992Z,81.71
2022-08-20T22:19:54.540Z,81.55
2022-08-20T22:22:21.191Z,81.81
2022-08-20T22:24:47.632Z,81.93
2022-08-20T22:27:24.985Z,81.83
2022-08-20T22:29:56.115Z,81.90
2022-08-20T22:32:22.601Z,82.02
2022-08-20T22:35:00.954Z,82.08
2022-08-20T22:37:31.233Z,82.12
2022-08-20T22:40:06.425Z,82.09
2022-08-20T22:42:39.855Z,82.10
2022-08-20T22:45:13.468Z,82.06
2022-08-20T22:47:49.456Z,82.06
2022-08-20T22:50:25.192Z,82.10
2022-08-20T22:53:21.901Z,82.29
2022-08-20T22:55:49.243Z,82.40
2022-08-20T22:58:30.409Z,82.20
2022-08-20T23:00:59.611Z,82.12
2022-08-20T23:03:59.976Z,82.37
2022-08-20T23:06:29.981Z,82.57
2022-08-20T23:08:56.420Z,82.19
2022-08-20T23:11:26.213Z,82.09
2022-08-20T23:13:57.076Z,82.21
2022-08-20T23:16:40.253Z,82.60
2022-08-20T23:19:21.545Z,82.25
2022-08-20T23:21:49.760Z,82.39
2022-08-20T23:24:52.199Z,82.24
2022-08-20T23:27:20.447Z,82.08
2022-08-20T23:29:47.495Z,82.41
2022-08-20T23:32:14.104Z,82.79
2022-08-20T23:34:54.745Z,82.65
2022-08-20T23:37:48.625Z,82.36
2022-08-20T23:40:17.364Z,82.67
2022-08-20T23:42:47.061Z,82.95
2022-08-20T23:45:14.156Z,82.88
2022-08-20T23:47:40.544Z,83.22
2022-08-20T23:50:11.493Z,83.08
2022-08-20T23:52:42.101Z,83.04
2022-08-20T23:55:09.947Z,83.09
2022-08-20T23:57:55.705Z,82.83
